Terminal Aerodrome Forecast
Issued by NWS Jacksonville, FL

Home | Current Version | Previous Version | Text Only | Print | Product List | Glossary On
Versions: 1 2 3 4 5 6 7 8 9 10 11 12 13 14 15 16 17 18 19 20 21 22 23 24
000
FTUS42 KJAX 170800 CCA
TAFJAX
TAF COR
KJAX 170805Z 1708/1806 27005KT P6SM SCT010 BKN100
      TEMPO 1710/1712 BKN010
     FM171600 32007KT P6SM VCSH SCT030 BKN100
     FM172000 02006KT P6SM VCTS SCT035CB
     FM180100 VRB03KT P6SM SCT200=

USA.gov is the U.S. government's official web portal to all federal, state and local government web resources and services.